»·PEaware :: QXE2364 KALW-KPUW

QXE2364 :: KALW-KPUW

FLIGHT INFORMATION

Flight Status: Arrived
Operator:
Horizon Air
More flights by this operator :: More flights under this callsign
Pilot: Adlai G. (28854)
Aircraft: DEHAVILLAND DASH 8 400
(DH8D)
More flights by this aircraft type
Origin: KALW Walla Walla Regl
United States
Destination: KPUW Pullman/Moscow Regl
United States
More flights between these airports :: More routes between these airports
Route: ALW V536 PUW
File this flight plan on PilotEdge
Remarks:
Altitude:
(Current/Filed)
9,000ft
Speed:
(Current/Filed)
333kts
Departed: 17-May-20 03:45 PM
Arrived: 17-May-20 04:10 PM
Distance/Time
Traveled:
62nm/0:25
Distance/Time
To Go:
Arrived

Flight Plot

Page will automatically refresh every two minutes.

Flight plan parsing failed; only flown route is shown


Map Options




Map Legend


Flown Route
Filed Route
Departure Airport
Arrival Airport
Navaid (VOR, NDB)
Fix

Horizontal Profiles

Position Reports

Time Latitude Longitude Heading Altitude Ground
Speed
17-May-20 15:15 46.088214 -118.284801 216 1198ft 0kts
17-May-20 15:16 46.088214 -118.284801 216 1198ft 0kts
17-May-20 15:17 46.088214 -118.284801 216 1198ft 0kts
17-May-20 15:18 46.088214 -118.284801 216 1198ft 0kts
17-May-20 15:19 46.088214 -118.284801 216 1198ft 0kts
17-May-20 15:20 46.088214 -118.284801 216 1198ft 0kts
17-May-20 15:21 46.088214 -118.284801 216 1198ft 0kts
17-May-20 15:22 46.088214 -118.284801 216 1198ft 0kts
17-May-20 15:23 46.088214 -118.284801 216 1198ft 0kts
17-May-20 15:24 46.088214 -118.284801 216 1198ft 0kts
17-May-20 15:25 46.088214 -118.284801 216 1198ft 0kts
17-May-20 15:26 46.088214 -118.284801 216 1198ft 0kts
17-May-20 15:27 46.088214 -118.284801 216 1198ft 0kts
17-May-20 15:28 46.088214 -118.284801 216 1198ft 0kts
17-May-20 15:29 46.088214 -118.284801 216 1198ft 0kts
17-May-20 15:30 46.088214 -118.284801 216 1198ft 0kts
17-May-20 15:31 46.088214 -118.284801 216 1198ft 0kts
17-May-20 15:32 46.088214 -118.284801 216 1198ft 0kts
17-May-20 15:33 46.088214 -118.284801 216 1198ft 0kts
17-May-20 15:34 46.088214 -118.284801 216 1198ft 0kts
17-May-20 15:35 46.088209 -118.284806 216 1198ft 0kts
17-May-20 15:36 46.088194 -118.284823 216 1198ft 0kts
17-May-20 15:37 46.089001 -118.285433 35 1198ft 14kts
17-May-20 15:38 46.091480 -118.282776 36 1198ft 18kts
17-May-20 15:39 46.096128 -118.277865 37 1198ft 19kts
17-May-20 15:40 46.099009 -118.276256 330 1198ft 5kts
17-May-20 15:41 46.099023 -118.276277 317 1198ft 0kts
17-May-20 15:42 46.099023 -118.276277 317 1198ft 0kts
17-May-20 15:43 46.098728 -118.277571 216 1198ft 0kts
17-May-20 15:44 46.077086 -118.300860 218 2599ft 147kts
17-May-20 15:45 46.040764 -118.343441 220 5685ft 192kts
17-May-20 15:46 46.061402 -118.407631 353 7938ft 254kts
17-May-20 15:47 46.107785 -118.337521 91 8980ft 282kts
17-May-20 15:48 46.125474 -118.226776 57 8968ft 296kts
17-May-20 15:49 46.175938 -118.132219 49 8954ft 298kts
17-May-20 15:50 46.227855 -118.040103 52 8989ft 296kts
17-May-20 15:51 46.278607 -117.948082 53 8982ft 291kts
17-May-20 15:52 46.328733 -117.857792 51 8985ft 285kts
17-May-20 15:53 46.377313 -117.769537 53 8999ft 276kts
17-May-20 15:54 46.425880 -117.684794 43 8983ft 274kts
17-May-20 15:55 46.485305 -117.614469 39 8479ft 272kts
17-May-20 15:56 46.543321 -117.545853 41 7963ft 263kts
17-May-20 15:57 46.598478 -117.479990 41 7461ft 253kts
17-May-20 15:58 46.637274 -117.398745 79 6544ft 247kts
17-May-20 15:59 46.648365 -117.303683 83 6101ft 239kts
17-May-20 16:00 46.657715 -117.206621 83 5633ft 244kts
17-May-20 16:01 46.667150 -117.110452 82 5097ft 230kts
17-May-20 16:02 46.675871 -117.022660 82 4951ft 213kts
17-May-20 16:03 46.688591 -116.939101 59 4855ft 210kts
17-May-20 16:04 46.735605 -116.905543 355 4852ft 196kts
17-May-20 16:05 46.774624 -116.943893 298 4526ft 147kts
17-May-20 16:06 46.777712 -117.000602 249 4069ft 131kts
17-May-20 16:07 46.760009 -117.047789 237 3454ft 134kts
17-May-20 16:08 46.746967 -117.097226 247 2644ft 126kts
17-May-20 16:09 46.741296 -117.122217 24 2562ft 10kts
17-May-20 16:10 46.743276 -117.114377 70 2562ft 19kts
17-May-20 16:11 46.744488 -117.109379 53 2562ft 7kts
17-May-20 16:12 46.745181 -117.109570 340 2562ft 0kts
17-May-20 16:13 46.745181 -117.109570 340 2562ft 0kts
17-May-20 16:14 46.745181 -117.109570 340 2562ft 0kts
17-May-20 16:15 46.745181 -117.109570 340 2562ft 0kts

Navigation Log

Ident Type
Flight plan parsing failed, navigation log unavailable